Meteo Giornale » Osservazioni meteo Svizzera » Samedan

ore: 19:50 - Osservazioni Meteo Samedan
Lat. 46° 32' N Lon. 9° 53' E Alt. 1706 metri s.l.m.

sereno Europe/Zurich

9 °C

Sereno

Temp. 24 Ore

0 °C

17 °C

Nord

5.5 Km/h

Dew point 1 °C

Umidità 57 %

Visibilità  10 Km

Il sole sorge alle ore 06:15

Il sole tramonta alle ore 20:22

Data e Ora Cielo e Fenomeni T °C DP °C Um. % Pres. hPa Vis. km Vento km/h
Oggi h: 19:50 sereno Sereno 9 1 57 1020 10 N 5.5
Oggi h: 19:20 sereno Sereno 12 0 43 1020 10 SO 9.3
Oggi h: 18:20 poco_nuvoloso Poco Nuvoloso 15 -1 33 1020 10 O/SO 13
Oggi h: 17:50 poco_nuvoloso Poco Nuvoloso 15 0 35 1020 10 O/SO 13
Oggi h: 17:20 poco_nuvoloso Poco Nuvoloso 15 0 35 1020 10 O 13
Oggi h: 16:50 poco_nuvoloso Poco Nuvoloso 16 1 36 1020 10 O 14.8
Oggi h: 16:20 poco_nuvoloso Poco Nuvoloso 17 0 31 1020 10 O 14.8
Oggi h: 15:50 poco_nuvoloso Poco Nuvoloso 16 -1 31 1021 10 SO 14.8
Oggi h: 15:20 sereno Sereno 16 1 36 1021 10 S/SO 14.8
Oggi h: 14:50 sereno Sereno 16 -0 33 1021 10 SO 18.5
Oggi h: 14:20 sereno Sereno 16 1 36 1021 10 SO 14.8
Oggi h: 13:50 sereno Sereno 15 0 35 1021 10 S/SO 14.8
Oggi h: 13:20 sereno Sereno 15 -0 35 1022 10 S 11.1
Oggi h: 12:50 sereno Sereno 14 -1 35 1022 10 E/SE 7.4
Oggi h: 12:20 sereno Sereno 13 -1 37 1022 10 E/NE 7.4
Oggi h: 11:50 sereno Sereno 13 -1 37 1022 10 N 3.7
Oggi h: 11:20 sereno Sereno 12 -3 34 1022 10 N 5.5
Oggi h: 10:50 sereno Sereno 11 2 53 1022 10 N 5.5
Oggi h: 10:20 sereno Sereno 9 3 66 1022 10 N 3.7
Oggi h: 09:50 poco_nuvoloso Poco Nuvoloso 7 4 81 1023 10 N 1.8
Oggi h: 09:20 poco_nuvoloso Poco Nuvoloso 5 4 93 1023 10 N 1.8
Oggi h: 08:50 poco_nuvoloso Poco Nuvoloso 3 2 93 1023 10 N 1.8
Oggi h: 08:20 poco_nuvoloso Poco Nuvoloso 2 2 100 1023 10 N 0
Oggi h: 07:50 poco_nuvoloso Poco Nuvoloso 2 1 93 1023 10 N 1.8
Oggi h: 07:20 poco_nuvoloso Poco Nuvoloso 2 1 93 1022 10 N 3.7
Oggi h: 06:50 molto_nuvoloso Molto Nuvoloso 2 1 93 1022 10 N 3.7
Oggi h: 06:20 molto_nuvoloso Molto Nuvoloso 1 0 93 1022 10 N 3.7
Oggi h: 05:50 sereno Sereno 0 -0 100 1022 10 N 3.7
Oggi h: 05:20 sereno Sereno 2 1 93 1022 10 N 1.8
Oggi h: 04:50 sereno Sereno 3 2 93 1022 10 N 1.8
Oggi h: 04:20 molto_nuvoloso Molto Nuvoloso 4 3 93 1022 10 N 3.7
Oggi h: 03:50 molto_nuvoloso Molto Nuvoloso 4 2 86 1022 10 N 3.7
Oggi h: 03:20 coperto_pioggia Pioggia Debole 4 2 86 1022 10 N 5.5
Oggi h: 02:50 molto_nuvoloso Molto Nuvoloso 5 2 80 1021 10 N 3.7
Oggi h: 02:20 coperto Coperto 4 1 80 1021 10 N 3.7
Oggi h: 01:50 coperto Coperto 4 1 80 1021 10 N 3.7
Oggi h: 01:20 molto_nuvoloso Molto Nuvoloso 4 1 80 1021 10 N 3.7
Oggi h: 00:50 poco_nuvoloso Poco Nuvoloso 4 1 80 1021 10 N 5.5
Oggi h: 00:20 sereno Sereno 4 1 80 1021 10 N 3.7
Ieri h: 23:50 sereno Sereno 4 1 80 1021 10 N 3.7
Ieri h: 23:20 coperto Coperto 6 2 75 1021 10 N 3.7
Ieri h: 22:50 molto_nuvoloso Molto Nuvoloso 7 2 70 1021 10 N 3.7
Ieri h: 22:20 coperto Coperto 6 1 70 1021 10 S/SO 7.4
Ieri h: 21:50 coperto Coperto 6 2 75 1021 10 S/SO 7.4
Ieri h: 21:20 molto_nuvoloso Molto Nuvoloso 6 1 70 1021 10 N 5.5
Ieri h: 20:50 sereno Sereno 7 1 65 1020 10 S/SE 9.3